Time;durP1;ratioP1;P1;durP2;ratioP2;P2;SDS_P1;SDS_P2;PMS_P1;PMS_P2;Temp;Humidity;BMP_temperature;BMP_pressure;BME280_temperature;BME280_humidity;BME280_pressure;Samples;Min_cycle;Max_cycle;Signal;HPM_P1;HPM_P2
2024/02/28 00:00:44;;;;;;;0.00;0.00;;;23.30;54.30;;;;;;5007512;28;20217;-43
2024/02/28 00:03:14;;;;;;;0.00;0.00;;;23.30;54.30;;;;;;5007925;28;20763;-42
2024/02/28 00:05:45;;;;;;;0.00;0.00;;;23.30;54.90;;;;;;5003714;28;20194;-43
2024/02/28 00:08:16;;;;;;;0.00;0.00;;;23.30;54.30;;;;;;5022084;28;20208;-42
2024/02/28 00:10:49;;;;;;;0.03;0.03;;;23.40;54.20;;;;;;5026514;28;20223;-44
2024/02/28 00:13:20;;;;;;;0.00;0.00;;;23.30;54.20;;;;;;5026766;28;20391;-42
2024/02/28 00:15:50;;;;;;;0.00;0.00;;;23.40;54.20;;;;;;5027626;28;20204;-42
2024/02/28 00:18:21;;;;;;;0.00;0.00;;;23.40;54.20;;;;;;5026623;28;20231;-41
2024/02/28 00:20:52;;;;;;;0.00;0.00;;;23.40;54.20;;;;;;5027359;28;20226;-41
2024/02/28 00:23:22;;;;;;;0.00;0.00;;;23.40;54.20;;;;;;5027344;28;20255;-43
2024/02/28 00:25:55;;;;;;;0.00;0.00;;;23.40;54.10;;;;;;5027091;28;20204;-43
2024/02/28 00:28:26;;;;;;;0.00;0.00;;;23.40;54.10;;;;;;5028561;28;20266;-42
2024/02/28 00:30:56;;;;;;;0.00;0.00;;;23.40;54.10;;;;;;5030310;28;20220;-42
2024/02/28 00:33:27;;;;;;;0.00;0.00;;;23.40;54.00;;;;;;5031314;28;20207;-43
2024/02/28 00:35:58;;;;;;;0.08;0.08;;;23.40;54.10;;;;;;5019427;28;20595;-42
2024/02/28 00:38:29;;;;;;;0.00;0.00;;;23.40;54.00;;;;;;5011662;28;20228;-42
2024/02/28 00:41:01;;;;;;;0.10;0.10;;;23.50;54.00;;;;;;5011246;28;20229;-42
2024/02/28 00:43:32;;;;;;;0.10;0.10;;;23.50;54.00;;;;;;5010758;28;20201;-42
2024/02/28 00:46:03;;;;;;;0.00;0.00;;;23.50;54.00;;;;;;5010879;28;20206;-42
2024/02/28 00:48:34;;;;;;;0.00;0.00;;;23.50;54.00;;;;;;5025610;28;20215;-41
2024/02/28 00:51:05;;;;;;;0.00;0.00;;;23.50;54.00;;;;;;5030121;28;20220;-42
2024/02/28 00:53:35;;;;;;;0.00;0.00;;;23.50;54.60;;;;;;5030666;28;20286;-41
2024/02/28 00:56:08;;;;;;;0.00;0.00;;;23.50;53.90;;;;;;5030687;28;20200;-43
2024/02/28 00:58:39;;;;;;;0.10;0.10;;;23.50;53.80;;;;;;5029659;28;20231;-42
2024/02/28 01:01:09;;;;;;;0.00;0.00;;;23.50;53.80;;;;;;5010908;28;20711;-41
2024/02/28 01:03:40;;;;;;;0.10;0.10;;;23.50;53.80;;;;;;5010689;28;20654;-42
2024/02/28 01:06:11;;;;;;;0.08;0.08;;;23.60;53.80;;;;;;5011063;28;20219;-41
2024/02/28 01:08:41;;;;;;;0.00;0.00;;;23.60;53.70;;;;;;5007184;28;20207;-42
2024/02/28 01:11:14;;;;;;;0.10;0.10;;;23.60;53.70;;;;;;4993717;28;20225;-42
2024/02/28 01:13:45;;;;;;;0.10;0.10;;;23.60;53.70;;;;;;4993898;28;20197;-42
2024/02/28 01:16:15;;;;;;;0.00;0.00;;;23.60;53.70;;;;;;4996774;28;20194;-41
2024/02/28 01:18:46;;;;;;;0.00;0.00;;;23.60;53.60;;;;;;4993636;28;20224;-43
2024/02/28 01:21:17;;;;;;;0.00;0.00;;;23.60;53.60;;;;;;4994440;28;20245;-42
2024/02/28 01:23:47;;;;;;;0.00;0.00;;;23.60;53.50;;;;;;5004394;28;20724;-42
2024/02/28 01:26:22;;;;;;;0.00;0.00;;;23.70;53.60;;;;;;5013638;28;20197;-41
2024/02/28 01:28:52;;;;;;;0.00;0.00;;;23.70;53.60;;;;;;5013791;28;20633;-41
2024/02/28 01:31:23;;;;;;;0.00;0.00;;;23.70;53.60;;;;;;5013466;28;20236;-41
2024/02/28 01:33:53;;;;;;;0.00;0.00;;;23.70;53.60;;;;;;5013373;28;20223;-43
2024/02/28 01:36:24;;;;;;;0.00;0.00;;;23.70;53.60;;;;;;5012778;28;20197;-41
2024/02/28 01:38:55;;;;;;;0.00;0.00;;;23.70;53.50;;;;;;5006305;28;20224;-41
2024/02/28 01:41:27;;;;;;;0.00;0.00;;;23.70;53.50;;;;;;5008655;28;20419;-41
2024/02/28 01:43:58;;;;;;;0.10;0.10;;;23.70;53.50;;;;;;5004650;28;20193;-41
2024/02/28 01:46:31;;;;;;;0.10;0.10;;;23.80;53.60;;;;;;4995199;28;20196;-42
2024/02/28 01:49:02;;;;;;;0.00;0.00;;;23.80;53.60;;;;;;5008044;28;20544;-42
2024/02/28 01:51:33;;;;;;;0.10;0.10;;;23.80;53.50;;;;;;5010426;28;20205;-42
2024/02/28 01:54:03;;;;;;;0.10;0.10;;;23.80;53.50;;;;;;5028823;28;20250;-42
2024/02/28 01:56:36;;;;;;;0.05;0.05;;;23.80;53.50;;;;;;5021768;28;20203;-42
2024/02/28 01:59:07;;;;;;;0.10;0.10;;;23.80;53.50;;;;;;5006239;28;20751;-42
2024/02/28 02:01:39;;;;;;;0.00;0.00;;;23.80;53.50;;;;;;5009517;28;20213;-43
2024/02/28 02:04:10;;;;;;;0.00;0.00;;;23.90;53.50;;;;;;4996683;28;20495;-41
2024/02/28 02:06:44;;;;;;;0.00;0.00;;;23.90;53.50;;;;;;5020847;28;20251;-41
2024/02/28 02:09:15;;;;;;;0.05;0.05;;;23.90;53.40;;;;;;5008941;28;20315;-41
2024/02/28 02:11:48;;;;;;;0.00;0.00;;;23.90;53.40;;;;;;5009165;28;20208;-41
2024/02/28 02:14:18;;;;;;;0.00;0.00;;;23.90;53.40;;;;;;5009602;28;20208;-43
2024/02/28 02:16:49;;;;;;;0.00;0.00;;;23.90;53.30;;;;;;5008403;28;20250;-44
2024/02/28 02:19:20;;;;;;;0.10;0.10;;;24.00;53.30;;;;;;5029138;28;20700;-43
2024/02/28 02:21:55;;;;;;;0.00;0.00;;;24.00;53.30;;;;;;5028742;28;20222;-42
2024/02/28 02:24:27;;;;;;;0.00;0.00;;;24.00;53.20;;;;;;5029795;28;20286;-43
2024/02/28 02:27:00;;;;;;;0.00;0.00;;;24.00;53.20;;;;;;4991011;28;20562;-42
2024/02/28 02:29:30;;;;;;;0.00;0.00;;;24.00;53.10;;;;;;4995298;28;20212;-43
2024/02/28 02:32:01;;;;;;;0.00;0.00;;;24.00;53.00;;;;;;5028772;28;20207;-42
2024/02/28 02:34:31;;;;;;;0.00;0.00;;;24.00;53.00;;;;;;5008934;28;20227;-42
2024/02/28 02:37:02;;;;;;;0.00;0.00;;;24.10;53.00;;;;;;5009595;28;20219;-42
2024/02/28 02:39:34;;;;;;;0.00;0.00;;;24.10;52.90;;;;;;5008843;28;20556;-43
2024/02/28 02:42:05;;;;;;;0.00;0.00;;;24.10;52.80;;;;;;5008835;28;20209;-41
2024/02/28 02:44:36;;;;;;;0.00;0.00;;;24.10;52.80;;;;;;5024050;28;20199;-42
2024/02/28 02:47:06;;;;;;;0.08;0.08;;;24.10;52.70;;;;;;5028338;28;20614;-42
2024/02/28 02:49:37;;;;;;;0.10;0.10;;;24.10;52.60;;;;;;5027948;28;20693;-42
2024/02/28 02:52:08;;;;;;;0.00;0.00;;;24.20;52.60;;;;;;5021220;28;20196;-42
2024/02/28 02:54:40;;;;;;;0.00;0.00;;;24.20;52.60;;;;;;5009013;28;20197;-42
2024/02/28 02:57:11;;;;;;;0.00;0.00;;;24.20;52.50;;;;;;5021693;28;20207;-42
2024/02/28 02:59:42;;;;;;;0.00;0.00;;;24.20;52.50;;;;;;5027778;28;20235;-42
2024/02/28 03:02:12;;;;;;;0.00;0.00;;;24.20;52.50;;;;;;5028316;28;20212;-43
2024/02/28 03:04:43;;;;;;;0.00;0.00;;;24.20;52.40;;;;;;5028489;28;20208;-43
2024/02/28 03:07:14;;;;;;;0.00;0.00;;;24.30;52.40;;;;;;5014970;28;20200;-42
2024/02/28 03:09:47;;;;;;;0.00;0.00;;;24.20;52.40;;;;;;4991525;28;20225;-42
2024/02/28 03:12:17;;;;;;;0.00;0.00;;;24.30;52.30;;;;;;4987970;28;20209;-41
2024/02/28 03:14:48;;;;;;;0.00;0.00;;;24.30;52.30;;;;;;4987462;28;20197;-41
2024/02/28 03:17:19;;;;;;;0.00;0.00;;;24.30;52.30;;;;;;4988478;28;20577;-42
2024/02/28 03:19:49;;;;;;;0.00;0.00;;;24.30;52.30;;;;;;4988420;28;20270;-42
2024/02/28 03:22:20;;;;;;;0.00;0.00;;;24.30;52.20;;;;;;4994299;28;20207;-43
2024/02/28 03:24:52;;;;;;;0.00;0.00;;;24.40;52.20;;;;;;5027957;28;20203;-42
2024/02/28 03:27:23;;;;;;;0.10;0.10;;;24.40;52.20;;;;;;5027911;28;20196;-43
2024/02/28 03:29:54;;;;;;;0.00;0.00;;;24.40;52.10;;;;;;5007905;28;20217;-43
2024/02/28 03:32:24;;;;;;;0.00;0.00;;;24.40;52.10;;;;;;5012020;28;20196;-42
2024/02/28 03:34:55;;;;;;;0.00;0.00;;;24.40;52.00;;;;;;5011741;28;20193;-42
2024/02/28 03:37:26;;;;;;;0.00;0.00;;;24.50;52.00;;;;;;5012029;28;20212;-43
2024/02/28 03:39:58;;;;;;;0.00;0.00;;;24.50;51.90;;;;;;5011433;28;20233;-42
2024/02/28 03:42:29;;;;;;;0.00;0.00;;;24.50;51.80;;;;;;5011356;28;20205;-42
2024/02/28 03:44:59;;;;;;;0.00;0.00;;;24.50;51.70;;;;;;5000377;28;20213;-42
2024/02/28 03:47:30;;;;;;;0.00;0.00;;;24.50;51.60;;;;;;5004042;28;20201;-42
2024/02/28 03:50:03;;;;;;;0.00;0.00;;;24.50;51.50;;;;;;5007282;28;20216;-42
2024/02/28 03:52:34;;;;;;;0.00;0.00;;;24.60;51.50;;;;;;5007457;28;20215;-42
2024/02/28 03:55:07;;;;;;;0.00;0.00;;;24.60;51.50;;;;;;5007343;28;20231;-41
2024/02/28 03:57:37;;;;;;;0.00;0.00;;;24.60;51.40;;;;;;5021984;28;20199;-42
2024/02/28 04:00:10;;;;;;;0.00;0.00;;;24.60;51.40;;;;;;5027230;28;20491;-42
2024/02/28 04:02:41;;;;;;;0.00;0.00;;;24.60;51.40;;;;;;5019672;28;20251;-42
2024/02/28 04:05:12;;;;;;;0.00;0.00;;;24.60;51.30;;;;;;5012043;28;20633;-41
2024/02/28 04:07:42;;;;;;;0.00;0.00;;;24.60;51.30;;;;;;5011363;28;20200;-42
2024/02/28 04:10:15;;;;;;;0.00;0.00;;;24.70;51.30;;;;;;5020396;28;20254;-42
2024/02/28 04:12:47;;;;;;;0.08;0.08;;;24.70;51.30;;;;;;5031099;28;20200;-42
2024/02/28 04:15:17;;;;;;;0.00;0.00;;;24.70;51.20;;;;;;5031109;28;20223;-41
2024/02/28 04:17:48;;;;;;;0.00;0.00;;;24.70;51.10;;;;;;5031900;28;20653;-42
2024/02/28 04:20:19;;;;;;;0.00;0.00;;;24.70;51.00;;;;;;5030805;28;20243;-43
2024/02/28 04:22:49;;;;;;;0.00;0.00;;;24.70;51.00;;;;;;5030437;28;20196;-44
2024/02/28 04:25:22;;;;;;;0.00;0.00;;;24.80;50.90;;;;;;5030696;28;20199;-43
2024/02/28 04:27:53;;;;;;;0.00;0.00;;;24.80;50.80;;;;;;5030634;28;20208;-46
2024/02/28 04:30:23;;;;;;;0.00;0.00;;;24.80;50.70;;;;;;5030667;28;20220;-41
2024/02/28 04:32:54;;;;;;;0.00;0.00;;;24.90;50.30;;;;;;5031187;28;20227;-41
2024/02/28 04:35:25;;;;;;;0.10;0.10;;;24.80;50.20;;;;;;5029999;28;20204;-41
2024/02/28 04:37:55;;;;;;;0.00;0.00;;;24.90;50.30;;;;;;5012944;28;20205;-41
2024/02/28 04:40:28;;;;;;;0.00;0.00;;;24.90;50.20;;;;;;5011121;28;20232;-41
2024/02/28 04:42:58;;;;;;;0.00;0.00;;;24.90;50.30;;;;;;5010812;28;20197;-42
2024/02/28 04:45:29;;;;;;;0.00;0.00;;;24.90;50.30;;;;;;5010479;28;20201;-42
2024/02/28 04:48:00;;;;;;;0.00;0.00;;;24.90;50.40;;;;;;5017300;28;20568;-42
2024/02/28 04:50:30;;;;;;;0.00;0.00;;;24.90;50.40;;;;;;4995918;28;20225;-42
2024/02/28 04:53:01;;;;;;;0.00;0.00;;;25.00;50.40;;;;;;5005232;28;20213;-41
2024/02/28 04:55:34;;;;;;;0.00;0.00;;;24.90;50.30;;;;;;5011669;28;20586;-41
2024/02/28 04:58:04;;;;;;;0.00;0.00;;;25.00;50.20;;;;;;5014331;28;20208;-41
2024/02/28 05:00:35;;;;;;;0.00;0.00;;;25.00;50.30;;;;;;5013865;28;20243;-41
2024/02/28 05:03:06;;;;;;;0.00;0.00;;;25.00;50.30;;;;;;5014247;28;20227;-42
2024/02/28 05:05:36;;;;;;;0.00;0.00;;;25.10;50.30;;;;;;5013524;28;20540;-41
2024/02/28 05:08:07;;;;;;;0.00;0.00;;;25.10;50.30;;;;;;5011216;28;20201;-42
2024/02/28 05:10:40;;;;;;;0.00;0.00;;;25.10;50.30;;;;;;5014034;28;20220;-41
2024/02/28 05:13:10;;;;;;;0.00;0.00;;;25.10;50.40;;;;;;5013684;28;20196;-41
2024/02/28 05:15:41;;;;;;;0.05;0.05;;;25.10;50.20;;;;;;5013128;28;20679;-40
2024/02/28 05:18:12;;;;;;;0.00;0.00;;;25.10;50.30;;;;;;5013875;28;20207;-41
2024/02/28 05:20:42;;;;;;;0.00;0.00;;;25.10;50.90;;;;;;5000674;28;20225;-41
2024/02/28 05:23:13;;;;;;;0.00;0.00;;;25.10;50.30;;;;;;5004277;28;20197;-41
2024/02/28 05:25:46;;;;;;;0.00;0.00;;;25.20;50.30;;;;;;5014288;28;20199;-43
2024/02/28 05:28:16;;;;;;;0.00;0.00;;;25.20;50.20;;;;;;5013266;28;20208;-45
2024/02/28 05:30:47;;;;;;;0.00;0.00;;;25.20;50.20;;;;;;5013316;28;20223;-42
2024/02/28 05:33:18;;;;;;;0.00;0.00;;;25.20;50.20;;;;;;5013671;28;20215;-41
2024/02/28 05:35:48;;;;;;;0.00;0.00;;;25.20;50.20;;;;;;5013129;28;20229;-41
2024/02/28 05:38:19;;;;;;;0.00;0.00;;;25.20;50.10;;;;;;5012776;28;20705;-41
2024/02/28 05:40:51;;;;;;;0.00;0.00;;;25.20;50.10;;;;;;5012875;28;20240;-42
2024/02/28 05:43:22;;;;;;;0.00;0.00;;;25.20;50.00;;;;;;5013713;28;20535;-41
2024/02/28 05:45:53;;;;;;;0.00;0.00;;;25.30;50.10;;;;;;5013808;28;20216;-43
2024/02/28 05:48:23;;;;;;;0.00;0.00;;;25.30;50.10;;;;;;5013269;28;20197;-42
2024/02/28 05:50:54;;;;;;;0.00;0.00;;;25.30;50.10;;;;;;5013181;28;20220;-41
2024/02/28 05:53:26;;;;;;;0.00;0.00;;;25.30;50.10;;;;;;5012944;28;20604;-41
2024/02/28 05:55:59;;;;;;;0.00;0.00;;;25.30;50.10;;;;;;5013287;28;20207;-41
2024/02/28 05:58:29;;;;;;;0.00;0.00;;;25.30;50.20;;;;;;5013218;28;20224;-43
2024/02/28 06:01:00;;;;;;;0.00;0.00;;;25.30;50.10;;;;;;5012885;28;20238;-41
2024/02/28 06:03:31;;;;;;;0.00;0.00;;;25.30;50.10;;;;;;5009635;28;20197;-41
2024/02/28 06:06:04;;;;;;;0.00;0.00;;;25.30;50.00;;;;;;5012835;28;20193;-42
2024/02/28 06:08:36;;;;;;;0.00;0.00;;;25.30;49.90;;;;;;5013350;28;20200;-41
2024/02/28 06:11:09;;;;;;;0.00;0.00;;;25.30;49.90;;;;;;5012580;28;20716;-41
2024/02/28 06:13:42;;;;;;;0.00;0.00;;;25.30;49.90;;;;;;5012749;28;20197;-41
2024/02/28 06:16:18;;;;;;;0.00;0.00;;;25.30;49.90;;;;;;5013234;28;20200;-42
2024/02/28 06:18:49;;;;;;;0.00;0.00;;;25.30;49.90;;;;;;5013085;28;20203;-42
2024/02/28 06:21:20;;;;;;;0.00;0.00;;;25.30;49.90;;;;;;5012657;28;20235;-42
2024/02/28 06:23:51;;;;;;;0.00;0.00;;;25.40;50.00;;;;;;5010975;28;20196;-41
2024/02/28 06:26:23;;;;;;;0.00;0.00;;;25.30;50.00;;;;;;5004105;28;20201;-41
2024/02/28 06:28:54;;;;;;;0.00;0.00;;;25.30;50.00;;;;;;5008724;28;20200;-42
2024/02/28 06:31:24;;;;;;;0.00;0.00;;;25.40;50.00;;;;;;5008701;28;20229;-41
2024/02/28 06:33:55;;;;;;;0.00;0.00;;;25.40;50.00;;;;;;5007944;28;20212;-41
2024/02/28 06:36:26;;;;;;;0.00;0.00;;;25.40;50.00;;;;;;5008801;28;20247;-41
2024/02/28 06:38:56;;;;;;;0.00;0.00;;;25.40;50.00;;;;;;5023291;28;20204;-42
2024/02/28 06:41:29;;;;;;;0.00;0.00;;;25.40;49.90;;;;;;5027989;28;20243;-48
2024/02/28 06:43:59;;;;;;;0.00;0.00;;;25.40;49.80;;;;;;5013799;28;20661;-41
2024/02/28 06:46:30;;;;;;;0.00;0.00;;;25.40;49.70;;;;;;5007529;28;20314;-44
2024/02/28 06:49:01;;;;;;;0.00;0.00;;;25.40;49.60;;;;;;5007878;28;20196;-41
2024/02/28 06:51:31;;;;;;;0.00;0.00;;;25.40;49.50;;;;;;5007594;28;20228;-42
2024/02/28 06:54:02;;;;;;;0.00;0.00;;;25.30;49.30;;;;;;5008675;28;20570;-42
2024/02/28 06:56:35;;;;;;;0.00;0.00;;;25.30;49.40;;;;;;4989954;28;20205;-41
2024/02/28 06:59:06;;;;;;;0.00;0.00;;;25.30;49.40;;;;;;4987904;28;20209;-42
2024/02/28 07:01:37;;;;;;;0.00;0.00;;;25.30;49.40;;;;;;4990575;28;20312;-41
2024/02/28 07:04:08;;;;;;;0.00;0.00;;;25.30;49.40;;;;;;4992557;28;20205;-43
2024/02/28 07:06:39;;;;;;;0.00;0.00;;;25.30;49.40;;;;;;5021146;28;20207;-41
2024/02/28 07:09:11;;;;;;;0.00;0.00;;;25.30;49.40;;;;;;5007799;28;20207;-41
2024/02/28 07:11:44;;;;;;;0.00;0.00;;;25.30;49.30;;;;;;5008030;28;20204;-41
2024/02/28 07:14:18;;;;;;;0.00;0.00;;;25.30;49.20;;;;;;5005171;28;20203;-42
2024/02/28 07:16:49;;;;;;;0.00;0.00;;;25.30;49.20;;;;;;5007526;28;20209;-42
2024/02/28 07:19:19;;;;;;;0.00;0.00;;;25.30;49.10;;;;;;5020269;28;20954;-41
2024/02/28 07:21:50;;;;;;;0.00;0.00;;;25.30;49.00;;;;;;5005739;28;20296;-42
2024/02/28 07:24:21;;;;;;;0.00;0.00;;;25.30;48.90;;;;;;5007649;28;20215;-41
2024/02/28 07:26:53;;;;;;;0.00;0.00;;;25.30;48.70;;;;;;5008799;28;20573;-41
2024/02/28 07:29:24;;;;;;;0.00;0.00;;;25.20;48.50;;;;;;5007491;28;20212;-41
2024/02/28 07:31:54;;;;;;;0.00;0.00;;;25.20;48.50;;;;;;5013171;28;20531;-43
2024/02/28 07:34:25;;;;;;;0.00;0.00;;;25.20;48.50;;;;;;5027470;28;20490;-41
2024/02/28 07:36:56;;;;;;;0.00;0.00;;;25.20;48.40;;;;;;5017384;28;20213;-42
2024/02/28 07:39:27;;;;;;;0.00;0.00;;;25.20;48.40;;;;;;5007038;28;20216;-41
2024/02/28 07:41:59;;;;;;;0.00;0.00;;;25.10;48.30;;;;;;5007028;28;20240;-42
2024/02/28 07:44:32;;;;;;;0.00;0.00;;;25.20;48.30;;;;;;5014502;28;20211;-43
2024/02/28 07:47:03;;;;;;;0.00;0.00;;;25.10;48.30;;;;;;5014448;28;20200;-41
2024/02/28 07:49:33;;;;;;;0.00;0.00;;;25.10;48.40;;;;;;5007716;28;20225;-41
2024/02/28 07:52:04;;;;;;;0.00;0.00;;;25.10;48.40;;;;;;5007614;28;20239;-41
2024/02/28 07:54:36;;;;;;;0.00;0.00;;;25.10;48.50;;;;;;4997388;28;20208;-44
2024/02/28 07:57:09;;;;;;;0.00;0.00;;;25.10;48.50;;;;;;4992474;28;20205;-41
2024/02/28 07:59:43;;;;;;;0.10;0.10;;;25.10;48.50;;;;;;5000407;28;20221;-41
2024/02/28 08:02:13;;;;;;;0.00;0.00;;;25.10;48.50;;;;;;4987578;28;20206;-42
2024/02/28 08:04:44;;;;;;;0.00;0.00;;;25.10;48.60;;;;;;4987789;28;20572;-42
2024/02/28 08:07:15;;;;;;;0.00;0.00;;;25.10;48.60;;;;;;5000628;28;20204;-41
2024/02/28 08:09:45;;;;;;;0.00;0.00;;;25.10;48.50;;;;;;5006898;28;20221;-42
2024/02/28 08:12:18;;;;;;;0.00;0.00;;;25.10;48.40;;;;;;5020378;28;20798;-41
2024/02/28 08:14:49;;;;;;;0.00;0.00;;;25.10;48.30;;;;;;5027234;28;20589;-41
2024/02/28 08:17:19;;;;;;;0.00;0.00;;;25.10;48.20;;;;;;5027022;28;20257;-42
2024/02/28 08:19:50;;;;;;;0.00;0.00;;;25.10;48.30;;;;;;5017511;28;20701;-41
2024/02/28 08:22:20;;;;;;;0.00;0.00;;;25.10;48.20;;;;;;5007314;28;20207;-42
2024/02/28 08:24:54;;;;;;;0.00;0.00;;;25.00;48.10;;;;;;5010058;28;20207;-42
2024/02/28 08:27:27;;;;;;;0.00;0.00;;;25.00;48.10;;;;;;4994348;28;20224;-41
2024/02/28 08:29:58;;;;;;;0.00;0.00;;;25.00;48.20;;;;;;4987678;28;20229;-42
2024/02/28 08:32:28;;;;;;;0.00;0.00;;;25.00;48.20;;;;;;4987661;28;20711;-46
2024/02/28 08:34:59;;;;;;;0.00;0.00;;;24.90;48.20;;;;;;4988126;28;20201;-40
2024/02/28 08:37:30;;;;;;;0.00;0.00;;;24.90;48.20;;;;;;5012355;28;20211;-45
2024/02/28 08:40:00;;;;;;;0.00;0.00;;;24.90;48.30;;;;;;5027269;28;20282;-42
2024/02/28 08:42:33;;;;;;;0.00;0.00;;;24.90;48.40;;;;;;5026435;28;20192;-42
2024/02/28 08:45:05;;;;;;;0.00;0.00;;;24.90;48.40;;;;;;5026933;28;20200;-42
2024/02/28 08:47:36;;;;;;;0.00;0.00;;;24.90;48.40;;;;;;5008457;28;20197;-41
2024/02/28 08:50:07;;;;;;;0.00;0.00;;;24.90;48.50;;;;;;5001575;28;20712;-43
2024/02/28 08:52:38;;;;;;;0.00;0.00;;;24.90;48.60;;;;;;5023768;28;20650;-42
2024/02/28 08:55:09;;;;;;;0.00;0.00;;;24.90;48.60;;;;;;5010456;28;20530;-44
2024/02/28 08:57:41;;;;;;;0.00;0.00;;;24.90;48.70;;;;;;5010531;28;20203;-41
2024/02/28 09:00:13;;;;;;;0.00;0.00;;;24.90;48.70;;;;;;5010310;28;20225;-43
2024/02/28 09:02:43;;;;;;;0.00;0.00;;;24.90;48.80;;;;;;5011233;28;20229;-42
2024/02/28 09:05:14;;;;;;;0.00;0.00;;;24.90;48.80;;;;;;5019453;28;20212;-41
2024/02/28 09:07:46;;;;;;;0.00;0.00;;;24.90;48.80;;;;;;5006546;28;20230;-40
2024/02/28 09:10:21;;;;;;;0.00;0.00;;;24.90;48.80;;;;;;5010623;28;20221;-41
2024/02/28 09:12:53;;;;;;;0.00;0.00;;;24.90;48.80;;;;;;5010300;28;20595;-40
2024/02/28 09:15:25;;;;;;;0.00;0.00;;;24.90;48.70;;;;;;5010363;28;20208;-40
2024/02/28 09:17:55;;;;;;;0.00;0.00;;;24.80;48.70;;;;;;5030267;28;20236;-41
2024/02/28 09:20:26;;;;;;;0.00;0.00;;;24.90;48.70;;;;;;5015704;28;20232;-43
2024/02/28 09:22:57;;;;;;;0.00;0.00;;;24.80;48.70;;;;;;5010426;28;20204;-41
2024/02/28 09:25:35;;;;;;;0.00;0.00;;;24.80;48.70;;;;;;4993025;28;20197;-41
2024/02/28 09:28:08;;;;;;;0.00;0.00;;;24.80;48.70;;;;;;5009669;28;20205;-41
2024/02/28 09:30:39;;;;;;;0.00;0.00;;;24.80;48.70;;;;;;5018718;28;20255;-41
2024/02/28 09:33:10;;;;;;;0.00;0.00;;;24.80;48.80;;;;;;5029236;28;20577;-41
2024/02/28 09:35:41;;;;;;;0.00;0.00;;;24.80;48.80;;;;;;5029064;28;20204;-42
2024/02/28 09:38:12;;;;;;;0.00;0.00;;;24.70;48.70;;;;;;4990510;28;20643;-41
2024/02/28 09:40:42;;;;;;;0.00;0.00;;;24.70;48.80;;;;;;4989923;28;20424;-42
2024/02/28 09:43:22;;;;;;;0.00;0.00;;;24.70;48.80;;;;;;4990044;28;20202;-42
2024/02/28 09:45:53;;;;;;;0.00;0.00;;;24.70;48.90;;;;;;5027100;28;20202;-41
2024/02/28 09:48:24;;;;;;;0.00;0.00;;;24.70;48.90;;;;;;5029514;28;20208;-41
2024/02/28 09:50:55;;;;;;;0.10;0.10;;;24.70;48.80;;;;;;5029651;28;20227;-41
2024/02/28 09:53:26;;;;;;;0.00;0.00;;;24.70;48.90;;;;;;5009805;28;20565;-41
2024/02/28 09:55:57;;;;;;;0.00;0.00;;;24.70;48.80;;;;;;4989918;28;20666;-41
2024/02/28 09:58:30;;;;;;;0.00;0.00;;;24.70;48.90;;;;;;5022657;28;20720;-41
2024/02/28 10:01:04;;;;;;;0.00;0.00;;;24.60;48.80;;;;;;5028794;28;20238;-40
2024/02/28 10:03:36;;;;;;;0.00;0.00;;;24.70;48.90;;;;;;5028758;28;20671;-42
2024/02/28 10:06:07;;;;;;;0.00;0.00;;;24.60;48.80;;;;;;5008003;28;20209;-42
2024/02/28 10:08:37;;;;;;;0.00;0.00;;;24.60;48.90;;;;;;5010212;28;20208;-42
2024/02/28 10:11:08;;;;;;;0.00;0.00;;;24.60;48.90;;;;;;5012595;28;20228;-42
2024/02/28 10:13:40;;;;;;;0.00;0.00;;;24.60;48.90;;;;;;5012393;28;20612;-41
2024/02/28 10:16:11;;;;;;;0.03;0.03;;;24.60;48.90;;;;;;5012045;28;20636;-41
2024/02/28 10:18:42;;;;;;;0.00;0.00;;;24.50;48.90;;;;;;5012927;28;20817;-41
2024/02/28 10:21:14;;;;;;;0.00;0.00;;;24.50;48.90;;;;;;5012748;28;20228;-41
2024/02/28 10:23:45;;;;;;;0.00;0.00;;;24.50;48.90;;;;;;5012947;28;20206;-41
2024/02/28 10:26:16;;;;;;;0.00;0.00;;;24.50;48.90;;;;;;5013084;28;20200;-43
2024/02/28 10:28:49;;;;;;;0.00;0.00;;;24.50;48.90;;;;;;5013101;28;20201;-43
2024/02/28 10:31:20;;;;;;;0.00;0.00;;;24.50;48.90;;;;;;5013029;28;20223;-41
2024/02/28 10:33:50;;;;;;;0.00;0.00;;;24.40;48.80;;;;;;5012704;28;20200;-41
2024/02/28 10:36:22;;;;;;;0.00;0.00;;;24.40;48.80;;;;;;5012732;28;20204;-40
2024/02/28 10:38:53;;;;;;;0.00;0.00;;;24.40;48.90;;;;;;5003291;28;20190;-41
2024/02/28 10:41:24;;;;;;;0.03;0.03;;;24.40;48.80;;;;;;4992573;28;20225;-41
2024/02/28 10:43:57;;;;;;;0.00;0.00;;;24.40;48.90;;;;;;4992870;28;20227;-43
2024/02/28 10:46:28;;;;;;;0.00;0.00;;;24.30;48.80;;;;;;4992767;28;20205;-42
2024/02/28 10:48:58;;;;;;;0.00;0.00;;;24.30;48.80;;;;;;5000510;28;20208;-44
2024/02/28 10:51:31;;;;;;;0.00;0.00;;;24.30;48.80;;;;;;5002118;28;20696;-45
2024/02/28 10:54:11;;;;;;;0.10;0.10;;;24.30;48.90;;;;;;5002527;28;20217;-40
2024/02/28 10:56:42;;;;;;;0.10;0.10;;;24.30;48.90;;;;;;5002508;28;20193;-41
2024/02/28 10:59:15;;;;;;;0.10;0.10;;;24.30;48.90;;;;;;5001512;28;20240;-41
2024/02/28 11:01:47;;;;;;;0.00;0.00;;;24.30;49.20;;;;;;5000956;28;20221;-41
2024/02/28 11:04:19;;;;;;;0.00;0.00;;;24.20;49.00;;;;;;5000506;28;20192;-46
2024/02/28 11:06:54;;;;;;;0.05;0.05;;;24.20;49.00;;;;;;5002306;28;20197;-42
2024/02/28 11:09:25;;;;;;;0.00;0.00;;;24.20;49.10;;;;;;5001033;28;20197;-42
2024/02/28 11:11:57;;;;;;;0.00;0.00;;;24.20;49.10;;;;;;5000721;28;20284;-42
2024/02/28 11:14:29;;;;;;;0.00;0.00;;;24.20;49.20;;;;;;4997205;28;20236;-41
2024/02/28 11:17:07;;;;;;;0.00;0.00;;;24.20;49.20;;;;;;5000281;28;20190;-41
2024/02/28 11:19:37;;;;;;;0.00;0.00;;;24.10;49.10;;;;;;5000332;28;20208;-43
2024/02/28 11:22:09;;;;;;;0.00;0.00;;;24.10;49.20;;;;;;5005605;28;20225;-43
2024/02/28 11:24:41;;;;;;;0.00;0.00;;;24.10;49.20;;;;;;5002411;28;20193;-41
2024/02/28 11:27:15;;;;;;;0.00;0.00;;;24.10;49.20;;;;;;5003793;28;20276;-43
2024/02/28 11:29:49;;;;;;;0.00;0.00;;;24.10;49.20;;;;;;5000283;28;20213;-41
2024/02/28 11:32:20;;;;;;;0.00;0.00;;;24.10;49.20;;;;;;5001077;28;20276;-42
2024/02/28 11:34:51;;;;;;;0.00;0.00;;;24.00;49.20;;;;;;5004883;28;20205;-41
2024/02/28 11:37:22;;;;;;;0.00;0.00;;;24.00;49.20;;;;;;5011583;28;20203;-43
2024/02/28 11:39:53;;;;;;;0.00;0.00;;;24.00;49.20;;;;;;5011663;28;20243;-41
2024/02/28 11:42:25;;;;;;;0.00;0.00;;;24.00;49.20;;;;;;5011558;28;20224;-41
2024/02/28 11:45:03;;;;;;;0.00;0.00;;;24.00;49.20;;;;;;5011717;28;20196;-45
2024/02/28 11:47:34;;;;;;;0.00;0.00;;;24.00;49.20;;;;;;5008821;28;20294;-41
2024/02/28 11:50:06;;;;;;;0.00;0.00;;;24.00;49.20;;;;;;5011660;28;20256;-45
2024/02/28 11:52:37;;;;;;;0.00;0.00;;;23.90;49.20;;;;;;5011468;28;20200;-42
2024/02/28 11:55:08;;;;;;;0.00;0.00;;;24.00;49.30;;;;;;5011631;28;20620;-41
2024/02/28 11:57:39;;;;;;;0.00;0.00;;;23.90;49.20;;;;;;5011571;28;20204;-41
2024/02/28 12:00:14;;;;;;;0.00;0.00;;;23.90;49.20;;;;;;5011466;28;20224;-41
2024/02/28 12:02:44;;;;;;;0.00;0.00;;;23.90;49.20;;;;;;5011369;28;20692;-43
2024/02/28 12:05:16;;;;;;;0.00;0.00;;;23.90;49.20;;;;;;5011327;28;20610;-42
2024/02/28 12:07:47;;;;;;;0.00;0.00;;;23.90;49.30;;;;;;5011096;28;20216;-42
2024/02/28 12:10:17;;;;;;;0.00;0.00;;;23.80;49.60;;;;;;5011441;28;20221;-40
2024/02/28 12:12:49;;;;;;;0.08;0.08;;;23.80;49.30;;;;;;5011621;28;20193;-41
2024/02/28 12:15:23;;;;;;;0.00;0.00;;;23.80;49.30;;;;;;5010998;28;20201;-42
2024/02/28 12:17:55;;;;;;;0.00;0.00;;;23.80;49.30;;;;;;5011119;28;20196;-41
2024/02/28 12:20:25;;;;;;;0.08;0.08;;;23.80;49.30;;;;;;5011452;28;20213;-42
2024/02/28 12:22:56;;;;;;;0.00;0.00;;;23.80;49.30;;;;;;5011667;28;20228;-41
2024/02/28 12:25:27;;;;;;;0.00;0.00;;;23.80;49.40;;;;;;5014374;28;20208;-41
2024/02/28 12:27:57;;;;;;;0.00;0.00;;;23.80;49.40;;;;;;5015501;28;20201;-41
2024/02/28 12:30:30;;;;;;;0.00;0.00;;;23.70;49.30;;;;;;5015212;28;20704;-42
2024/02/28 12:33:01;;;;;;;0.10;0.10;;;23.70;49.30;;;;;;5014637;28;20674;-41
2024/02/28 12:35:32;;;;;;;0.00;0.00;;;23.80;49.40;;;;;;5014886;28;20232;-41
2024/02/28 12:38:02;;;;;;;0.00;0.00;;;23.70;49.30;;;;;;5014674;28;20223;-41
2024/02/28 12:40:31;;;;;;;0.00;0.00;;;23.70;49.30;;;;;;5014343;28;20577;-42
2024/02/28 12:43:02;;;;;;;0.00;0.00;;;23.70;49.30;;;;;;5014362;28;20319;-41
2024/02/28 12:45:35;;;;;;;0.10;0.10;;;23.70;49.30;;;;;;5014403;28;20197;-41
2024/02/28 12:48:06;;;;;;;0.00;0.00;;;23.70;49.40;;;;;;5014464;28;20208;-41
2024/02/28 12:50:37;;;;;;;0.00;0.00;;;23.70;49.40;;;;;;5014118;28;20249;-41
2024/02/28 12:53:08;;;;;;;0.00;0.00;;;23.70;49.40;;;;;;5014179;28;20251;-41
2024/02/28 12:55:38;;;;;;;0.10;0.10;;;23.60;49.40;;;;;;5014544;28;20193;-41
2024/02/28 12:58:09;;;;;;;0.00;0.00;;;23.60;49.40;;;;;;5013175;28;20193;-41
2024/02/28 13:00:49;;;;;;;0.10;0.10;;;23.60;49.40;;;;;;4995202;28;20585;-40
2024/02/28 13:03:20;;;;;;;0.10;0.10;;;23.60;49.40;;;;;;4994920;28;20244;-42
2024/02/28 13:05:51;;;;;;;0.00;0.00;;;23.60;49.40;;;;;;4995604;28;20587;-40
2024/02/28 13:08:21;;;;;;;0.00;0.00;;;23.50;49.40;;;;;;5014433;28;20287;-42